Time;durP1;ratioP1;P1;durP2;ratioP2;P2;SDS_P1;SDS_P2;PMS_P1;PMS_P2;Temp;Humidity;BMP_temperature;BMP_pressure;BME280_temperature;BME280_humidity;BME280_pressure;Samples;Min_cycle;Max_cycle;Signal;HPM_P1;HPM_P2
2023/02/17 00:00:29;;;;;;;6.90;3.83;;;;;;;5.94;100.00;96643.78;5092938;28;24473;-79
2023/02/17 00:02:57;;;;;;;5.90;3.20;;;;;;;5.99;100.00;96657.34;5094825;28;24442;-79
2023/02/17 00:05:24;;;;;;;7.30;3.70;;;;;;;5.94;100.00;96649.78;5092866;28;24431;-79
2023/02/17 00:07:51;;;;;;;5.53;3.50;;;;;;;5.90;100.00;96660.19;5098603;28;24437;-79
2023/02/17 00:10:18;;;;;;;4.22;3.35;;;;;;;5.91;100.00;96654.13;5093871;28;24442;-79
2023/02/17 00:12:44;;;;;;;4.95;3.38;;;;;;;5.91;100.00;96652.41;5090620;28;24770;-79
2023/02/17 00:15:11;;;;;;;6.03;3.88;;;;;;;5.90;100.00;96650.72;5085846;28;24831;-79
2023/02/17 00:17:38;;;;;;;5.28;3.63;;;;;;;5.92;100.00;96653.25;5093059;28;25009;-78
2023/02/17 00:20:07;;;;;;;6.80;3.40;;;;;;;5.97;100.00;96652.25;5092687;28;24442;-79
2023/02/17 00:22:33;;;;;;;6.60;3.55;;;;;;;5.88;100.00;96642.22;5095433;28;24434;-78
2023/02/17 00:25:00;;;;;;;7.20;3.45;;;;;;;5.87;100.00;96650.81;5095632;28;24446;-79
2023/02/17 00:27:26;;;;;;;5.22;3.50;;;;;;;5.81;100.00;96651.00;5089684;28;24431;-79
2023/02/17 00:29:53;;;;;;;6.47;3.80;;;;;;;5.79;100.00;96650.22;5101295;28;24433;-79
2023/02/17 00:32:19;;;;;;;7.13;3.42;;;;;;;5.65;100.00;96649.78;5095160;28;24438;-79
2023/02/17 00:34:46;;;;;;;7.75;3.75;;;;;;;5.59;100.00;96651.63;5081918;28;24442;-78
2023/02/17 00:37:14;;;;;;;5.28;3.55;;;;;;;5.44;100.00;96652.06;5085996;28;20803;-78
2023/02/17 00:39:40;;;;;;;5.95;3.42;;;;;;;5.38;100.00;96641.97;5091404;28;25018;-79
2023/02/17 00:42:07;;;;;;;6.40;3.75;;;;;;;5.30;100.00;96644.75;5090345;28;24449;-77
2023/02/17 00:44:33;;;;;;;6.80;3.67;;;;;;;5.31;100.00;96645.59;5092894;28;20787;-79
2023/02/17 00:47:00;;;;;;;4.63;3.45;;;;;;;5.36;100.00;96645.47;5084433;28;24441;-77
2023/02/17 00:49:27;;;;;;;5.63;3.65;;;;;;;5.34;100.00;96640.38;5104344;28;24437;-78
2023/02/17 00:51:54;;;;;;;4.65;3.00;;;;;;;5.42;100.00;96645.31;5101873;28;24441;-78
2023/02/17 00:54:22;;;;;;;4.53;3.50;;;;;;;5.34;100.00;96641.22;5103515;28;24429;-77
2023/02/17 00:56:48;;;;;;;6.13;3.75;;;;;;;5.40;100.00;96637.63;5098922;28;24442;-78
2023/02/17 00:59:15;;;;;;;5.38;3.38;;;;;;;5.52;100.00;96637.25;5098741;28;24458;-78
2023/02/17 01:01:41;;;;;;;6.80;3.35;;;;;;;5.67;100.00;96633.41;5094572;28;24796;-79
2023/02/17 01:04:08;;;;;;;5.88;2.90;;;;;;;5.71;100.00;96629.00;5090771;28;24951;-77
2023/02/17 01:06:37;;;;;;;5.78;3.30;;;;;;;5.77;100.00;96631.41;5093065;28;25022;-77
2023/02/17 01:09:05;;;;;;;5.68;3.88;;;;;;;5.69;100.00;96636.78;5094210;28;24438;-77
2023/02/17 01:11:35;;;;;;;6.63;3.90;;;;;;;5.55;100.00;96637.16;5088843;28;24434;-77
2023/02/17 01:14:05;;;;;;;6.28;3.75;;;;;;;5.53;100.00;96638.97;5092780;28;20795;-78
2023/02/17 01:16:34;;;;;;;7.22;3.72;;;;;;;5.51;100.00;96637.31;5093896;28;24544;-78
2023/02/17 01:19:01;;;;;;;3.90;3.05;;;;;;;5.64;100.00;96627.53;5091056;28;24528;-79
2023/02/17 01:21:29;;;;;;;5.25;3.17;;;;;;;5.80;100.00;96621.88;5092665;28;24430;-77
2023/02/17 01:23:58;;;;;;;10.43;3.75;;;;;;;5.90;100.00;96619.88;5095168;28;20774;-78
2023/02/17 01:26:26;;;;;;;7.47;3.70;;;;;;;6.00;100.00;96617.88;5089158;28;24437;-79
2023/02/17 01:28:55;;;;;;;8.07;3.78;;;;;;;6.02;100.00;96616.09;5099680;28;24461;-78
2023/02/17 01:31:23;;;;;;;6.68;3.92;;;;;;;6.02;100.00;96610.97;5089150;28;24442;-77
2023/02/17 01:33:49;;;;;;;6.55;3.75;;;;;;;6.01;100.00;96609.28;5091430;28;24438;-77
2023/02/17 01:36:18;;;;;;;6.60;3.63;;;;;;;5.98;100.00;96611.97;5080735;28;26038;-77
2023/02/17 01:38:46;;;;;;;5.38;2.90;;;;;;;5.96;100.00;96617.13;5086545;28;24461;-77
2023/02/17 01:41:13;;;;;;;6.20;2.90;;;;;;;5.97;100.00;96610.25;5084071;28;24479;-77
2023/02/17 01:43:40;;;;;;;5.20;3.40;;;;;;;5.94;100.00;96608.63;5090560;28;24441;-77
2023/02/17 01:46:09;;;;;;;8.38;3.45;;;;;;;6.02;100.00;96606.66;5100211;28;24430;-78
2023/02/17 01:48:38;;;;;;;6.80;3.20;;;;;;;5.93;100.00;96606.97;5097144;28;24430;-78
2023/02/17 01:51:09;;;;;;;6.18;3.35;;;;;;;5.87;100.00;96604.53;5098407;28;24430;-78
2023/02/17 01:53:42;;;;;;;7.95;3.47;;;;;;;5.90;100.00;96603.63;5085837;28;24426;-79
2023/02/17 01:56:11;;;;;;;4.65;3.15;;;;;;;5.85;100.00;96606.31;5093065;28;24442;-79
2023/02/17 01:58:40;;;;;;;5.30;2.95;;;;;;;5.84;100.00;96599.50;5092865;28;24473;-79
2023/02/17 02:01:08;;;;;;;4.13;3.17;;;;;;;5.83;100.00;96595.25;5099580;28;25020;-79
2023/02/17 02:03:37;;;;;;;6.38;3.40;;;;;;;5.86;100.00;96599.44;5100890;28;24991;-77
2023/02/17 02:06:08;;;;;;;6.05;3.08;;;;;;;5.84;100.00;96589.19;5090603;28;24441;-77
2023/02/17 02:08:41;;;;;;;5.47;3.50;;;;;;;5.85;100.00;96585.72;5081243;28;24446;-77
2023/02/17 02:11:07;;;;;;;5.15;3.17;;;;;;;5.90;100.00;96588.19;5089779;28;24792;-79
2023/02/17 02:13:34;;;;;;;6.88;3.15;;;;;;;5.88;100.00;96585.66;5084765;28;24495;-79
2023/02/17 02:16:09;;;;;;;6.18;3.58;;;;;;;5.93;100.00;96588.09;5093928;28;24434;-79
2023/02/17 02:18:48;;;;;;;6.30;2.92;;;;;;;5.98;100.00;96586.25;5086261;28;20748;-78
2023/02/17 02:21:40;;;;;;;7.63;3.30;;;;;;;6.00;100.00;96593.00;5101787;28;24442;-78
2023/02/17 02:24:24;;;;;;;6.18;3.28;;;;;;;6.01;100.00;96588.72;5086835;28;20801;-78
2023/02/17 02:27:15;;;;;;;5.47;3.10;;;;;;;6.03;100.00;96580.03;5084861;28;20731;-78
2023/02/17 02:30:09;;;;;;;5.18;3.08;;;;;;;6.07;100.00;96576.50;5097460;28;24437;-78
2023/02/17 02:32:48;;;;;;;5.15;3.40;;;;;;;6.06;100.00;96568.84;5097875;28;24426;-77
2023/02/17 02:35:20;;;;;;;7.97;3.38;;;;;;;6.07;100.00;96575.66;5088657;28;24494;-78
2023/02/17 02:37:52;;;;;;;7.85;4.30;;;;;;;6.06;100.00;96579.13;5096209;28;20708;-78
2023/02/17 02:40:21;;;;;;;7.80;3.47;;;;;;;6.16;100.00;96577.09;5086286;28;24780;-77
2023/02/17 02:42:49;;;;;;;5.80;3.40;;;;;;;6.18;100.00;96580.44;5089353;28;20813;-78
2023/02/17 02:45:17;;;;;;;6.28;3.40;;;;;;;6.31;100.00;96571.47;5094648;28;24433;-78
2023/02/17 02:47:48;;;;;;;7.18;3.30;;;;;;;6.36;100.00;96577.28;5095956;28;20818;-78
2023/02/17 02:50:19;;;;;;;10.20;3.47;;;;;;;6.45;100.00;96573.53;5088777;28;24430;-78
2023/02/17 02:52:58;;;;;;;8.13;3.53;;;;;;;6.42;100.00;96568.53;5087004;28;20802;-78
2023/02/17 02:55:37;;;;;;;5.70;3.25;;;;;;;6.41;100.00;96565.09;5086056;28;21187;-78
2023/02/17 02:58:11;;;;;;;11.55;3.30;;;;;;;6.41;100.00;96556.53;5083847;28;20702;-79
2023/02/17 03:00:45;;;;;;;8.85;3.20;;;;;;;6.51;100.00;96551.03;5083088;28;20795;-79
2023/02/17 03:03:25;;;;;;;6.32;3.10;;;;;;;6.50;100.00;96551.94;5080140;28;25029;-78
2023/02/17 03:05:55;;;;;;;5.87;2.80;;;;;;;6.54;100.00;96544.94;5094169;28;24627;-79
2023/02/17 03:08:29;;;;;;;10.57;3.10;;;;;;;6.65;100.00;96544.56;5101025;28;20727;-78
2023/02/17 03:10:56;;;;;;;7.05;3.17;;;;;;;6.74;100.00;96528.78;5093311;28;20780;-78
2023/02/17 03:13:22;;;;;;;12.02;2.80;;;;;;;6.91;100.00;96534.19;5090896;28;24461;-79
2023/02/17 03:15:49;;;;;;;5.68;2.90;;;;;;;6.93;100.00;96537.53;5095010;28;24438;-78
2023/02/17 03:18:17;;;;;;;4.30;2.65;;;;;;;6.85;100.00;96546.44;5095184;28;20803;-79
2023/02/17 03:20:48;;;;;;;5.57;2.90;;;;;;;6.74;100.00;96539.09;5094483;28;20780;-78
2023/02/17 03:23:15;;;;;;;5.95;2.85;;;;;;;6.68;100.00;96550.44;5092400;28;20769;-78
2023/02/17 03:25:43;;;;;;;4.97;3.08;;;;;;;6.61;100.00;96545.56;5093074;28;24438;-78
2023/02/17 03:28:10;;;;;;;4.20;2.72;;;;;;;6.52;100.00;96547.53;5092359;28;24525;-77
2023/02/17 03:30:36;;;;;;;7.00;3.00;;;;;;;6.45;100.00;96537.53;5095544;28;24441;-78
2023/02/17 03:33:03;;;;;;;7.30;3.75;;;;;;;6.41;100.00;96546.25;5096501;28;21168;-79
2023/02/17 03:35:31;;;;;;;10.25;3.10;;;;;;;6.42;100.00;96556.50;5089252;28;24445;-78
2023/02/17 03:37:57;;;;;;;6.15;2.85;;;;;;;6.48;100.00;96552.84;5101981;28;20774;-78
2023/02/17 03:40:24;;;;;;;7.25;2.80;;;;;;;6.50;100.00;96561.38;5090019;28;24434;-78
2023/02/17 03:42:50;;;;;;;5.90;2.83;;;;;;;6.49;100.00;96559.72;5099316;28;24437;-79
2023/02/17 03:45:17;;;;;;;5.10;2.75;;;;;;;6.56;100.00;96561.16;5090740;28;24441;-79
2023/02/17 03:47:43;;;;;;;6.32;2.70;;;;;;;6.59;100.00;96548.19;5095295;28;24994;-78
2023/02/17 03:50:10;;;;;;;7.72;3.08;;;;;;;6.66;100.00;96547.09;5095604;28;24816;-77
2023/02/17 03:52:38;;;;;;;5.00;2.67;;;;;;;6.61;100.00;96543.84;5098667;28;21103;-78
2023/02/17 03:55:05;;;;;;;4.22;2.67;;;;;;;6.66;100.00;96549.66;5095289;28;20799;-78
2023/02/17 03:57:33;;;;;;;4.15;2.25;;;;;;;6.73;100.00;96545.97;5100625;28;24967;-78
2023/02/17 04:00:00;;;;;;;7.30;2.80;;;;;;;6.88;100.00;96552.31;5104525;28;20884;-79
2023/02/17 04:02:26;;;;;;;3.65;2.50;;;;;;;6.86;100.00;96550.69;5094933;28;20772;-78
2023/02/17 04:04:52;;;;;;;5.28;2.58;;;;;;;6.93;100.00;96552.97;5101716;28;20763;-78
2023/02/17 04:07:19;;;;;;;4.28;2.45;;;;;;;6.88;100.00;96556.63;5096817;28;21124;-79
2023/02/17 04:09:47;;;;;;;4.97;2.80;;;;;;;6.95;100.00;96563.25;5097253;28;20766;-79
2023/02/17 04:12:13;;;;;;;3.25;2.33;;;;;;;7.01;100.00;96571.59;5109147;28;20812;-77
2023/02/17 04:14:40;;;;;;;4.10;2.45;;;;;;;7.14;100.00;96564.25;5101569;28;24995;-79
2023/02/17 04:17:06;;;;;;;4.25;2.60;;;;;;;7.11;100.00;96564.34;5096608;28;25263;-78
2023/02/17 04:19:33;;;;;;;3.85;2.53;;;;;;;7.06;100.00;96570.59;5091235;28;25720;-78
2023/02/17 04:21:59;;;;;;;5.00;2.45;;;;;;;7.01;100.00;96571.59;5094449;28;20779;-79
2023/02/17 04:24:26;;;;;;;3.35;2.65;;;;;;;7.10;100.00;96562.69;5087054;28;20769;-79
2023/02/17 04:26:54;;;;;;;5.97;2.78;;;;;;;7.13;100.00;96570.31;5095042;28;20780;-79
2023/02/17 04:29:20;;;;;;;4.90;2.70;;;;;;;7.18;100.00;96565.81;5095307;28;21364;-78
2023/02/17 04:31:46;;;;;;;3.70;2.40;;;;;;;7.20;100.00;96571.75;5094870;28;20768;-78
2023/02/17 04:34:13;;;;;;;5.13;2.53;;;;;;;7.20;100.00;96560.63;5087582;28;20784;-78
2023/02/17 04:36:39;;;;;;;3.95;2.30;;;;;;;7.19;100.00;96558.94;5087607;28;24437;-79
2023/02/17 04:39:06;;;;;;;6.55;2.90;;;;;;;7.10;100.00;96559.28;5095814;28;20784;-79
2023/02/17 04:41:32;;;;;;;5.28;2.75;;;;;;;7.10;100.00;96552.38;5098929;28;20776;-79
2023/02/17 04:44:00;;;;;;;3.88;2.75;;;;;;;7.04;100.00;96544.88;5104075;28;20774;-79
2023/02/17 04:46:27;;;;;;;6.97;2.65;;;;;;;7.08;100.00;96530.16;5100704;28;20798;-79
2023/02/17 04:48:53;;;;;;;6.50;2.88;;;;;;;7.00;100.00;96530.44;5105654;28;24995;-77
2023/02/17 04:51:20;;;;;;;7.68;2.67;;;;;;;7.11;100.00;96545.50;5100459;28;20852;-79
2023/02/17 04:53:47;;;;;;;8.77;2.97;;;;;;;7.12;100.00;96555.75;5088986;28;24441;-77
2023/02/17 04:56:13;;;;;;;3.78;2.17;;;;;;;7.07;100.00;96551.66;5096893;28;24437;-78
2023/02/17 04:58:39;;;;;;;4.95;3.03;;;;;;;7.16;100.00;96551.34;5092260;28;24862;-78
2023/02/17 05:01:07;;;;;;;7.20;3.17;;;;;;;7.18;100.00;96547.78;5089304;28;24438;-78
2023/02/17 05:03:34;;;;;;;4.40;2.90;;;;;;;7.07;100.00;96543.94;5103192;28;20776;-78
2023/02/17 05:06:00;;;;;;;5.10;2.83;;;;;;;7.03;100.00;96538.88;5096831;27;24446;-78
2023/02/17 05:08:27;;;;;;;6.85;3.03;;;;;;;7.11;100.00;96538.59;5096998;28;24445;-78
2023/02/17 05:10:53;;;;;;;5.35;3.10;;;;;;;7.12;100.00;96530.00;5103894;28;24441;-78
2023/02/17 05:13:20;;;;;;;9.75;3.10;;;;;;;7.08;100.00;96533.56;5099299;28;24445;-79
2023/02/17 05:15:47;;;;;;;3.92;2.80;;;;;;;7.15;100.00;96537.59;5094250;28;24438;-78
2023/02/17 05:18:15;;;;;;;7.93;3.05;;;;;;;7.09;100.00;96537.84;5097697;28;20785;-78
2023/02/17 05:20:42;;;;;;;5.93;2.63;;;;;;;7.00;100.00;96538.16;5094555;28;21142;-80
2023/02/17 05:23:08;;;;;;;6.38;2.90;;;;;;;7.00;100.00;96527.84;5095009;28;20776;-78
2023/02/17 05:25:34;;;;;;;6.18;3.03;;;;;;;7.08;100.00;96525.81;5095695;28;24516;-78
2023/02/17 05:28:01;;;;;;;4.68;2.85;;;;;;;7.13;100.00;96523.09;5095189;28;24450;-77
2023/02/17 05:30:28;;;;;;;5.38;3.10;;;;;;;7.26;100.00;96530.28;5097567;28;25282;-78
2023/02/17 05:32:55;;;;;;;5.03;2.88;;;;;;;7.16;100.00;96526.41;5092941;28;25020;-78
2023/02/17 05:35:23;;;;;;;5.90;3.20;;;;;;;7.19;100.00;96533.16;5089411;28;24808;-77
2023/02/17 05:37:49;;;;;;;6.75;3.22;;;;;;;7.18;100.00;96539.22;5098286;28;20821;-79
2023/02/17 05:40:16;;;;;;;5.68;2.97;;;;;;;7.18;100.00;96539.22;5091032;28;24458;-77
2023/02/17 05:42:42;;;;;;;8.48;3.33;;;;;;;7.15;100.00;96553.03;5095564;28;24437;-77
2023/02/17 05:45:09;;;;;;;7.60;3.23;;;;;;;7.07;100.00;96539.59;5087975;28;24441;-78
2023/02/17 05:47:35;;;;;;;7.32;3.10;;;;;;;7.07;100.00;96546.50;5092353;28;20775;-78
2023/02/17 05:50:02;;;;;;;6.65;3.28;;;;;;;7.07;100.00;96549.06;5101697;28;24465;-78
2023/02/17 05:52:30;;;;;;;6.85;3.50;;;;;;;6.98;100.00;96552.84;5095957;28;24445;-79
2023/02/17 05:54:56;;;;;;;7.55;3.33;;;;;;;7.01;100.00;96551.00;5080378;28;20812;-78
2023/02/17 05:57:23;;;;;;;6.07;2.97;;;;;;;7.04;100.00;96560.31;5085373;28;24448;-77
2023/02/17 05:59:49;;;;;;;5.57;3.47;;;;;;;7.00;100.00;96561.34;5089807;28;24991;-77
2023/02/17 06:02:16;;;;;;;6.47;3.25;;;;;;;6.96;100.00;96557.19;5097470;28;24834;-78
2023/02/17 06:04:42;;;;;;;8.93;3.38;;;;;;;6.96;100.00;96559.75;5099886;28;24438;-77
2023/02/17 06:07:08;;;;;;;7.38;3.10;;;;;;;7.01;100.00;96563.88;5102328;28;24450;-77
2023/02/17 06:09:36;;;;;;;5.60;3.43;;;;;;;6.93;100.00;96559.88;5091913;28;24442;-78
2023/02/17 06:12:03;;;;;;;4.10;3.05;;;;;;;6.90;100.00;96554.84;5099439;28;20771;-77
2023/02/17 06:14:30;;;;;;;7.97;3.05;;;;;;;6.88;100.00;96560.03;5093258;28;24521;-78
2023/02/17 06:16:57;;;;;;;6.30;3.15;;;;;;;6.93;100.00;96565.00;5093807;28;20787;-78
2023/02/17 06:19:23;;;;;;;5.20;3.20;;;;;;;6.83;100.00;96574.81;5087113;28;24465;-79
2023/02/17 06:21:50;;;;;;;7.07;3.13;;;;;;;6.82;100.00;96562.81;5095260;28;21342;-78
2023/02/17 06:24:16;;;;;;;6.50;3.33;;;;;;;6.93;100.00;96571.00;5092793;28;24430;-78
2023/02/17 06:26:44;;;;;;;5.20;3.08;;;;;;;6.91;100.00;96574.56;5089388;28;24449;-78
2023/02/17 06:29:11;;;;;;;9.18;3.22;;;;;;;6.91;100.00;96582.28;5104463;28;20772;-79
2023/02/17 06:31:37;;;;;;;4.13;2.88;;;;;;;6.88;100.00;96580.63;5100456;28;24442;-78
2023/02/17 06:34:04;;;;;;;5.32;2.78;;;;;;;6.88;100.00;96578.06;5099759;28;24519;-79
2023/02/17 06:36:30;;;;;;;3.67;2.53;;;;;;;6.88;100.00;96578.06;5087013;28;24438;-78
2023/02/17 06:38:56;;;;;;;5.20;3.00;;;;;;;6.85;100.00;96573.00;5085167;28;24445;-78
2023/02/17 06:41:23;;;;;;;7.27;3.27;;;;;;;6.87;100.00;96573.81;5085653;28;24442;-77
2023/02/17 06:43:51;;;;;;;4.97;3.07;;;;;;;6.83;100.00;96574.81;5088040;28;24446;-78
2023/02/17 06:46:17;;;;;;;5.78;2.90;;;;;;;6.84;100.00;96575.66;5090268;28;20817;-78
2023/02/17 06:48:44;;;;;;;4.63;2.67;;;;;;;6.84;100.00;96573.91;5082226;28;24449;-78
2023/02/17 06:51:10;;;;;;;4.35;2.53;;;;;;;6.88;100.00;96577.22;5089033;28;24426;-77
2023/02/17 06:53:37;;;;;;;4.90;2.50;;;;;;;6.84;100.00;96588.53;5085903;28;24430;-77
2023/02/17 06:56:03;;;;;;;6.88;2.50;;;;;;;6.87;100.00;96591.84;5090575;28;20786;-78
2023/02/17 06:58:31;;;;;;;3.75;2.70;;;;;;;6.89;100.00;96587.47;5095923;28;20780;-79
2023/02/17 07:00:59;;;;;;;4.70;3.00;;;;;;;6.90;100.00;96591.75;5093455;28;20783;-78
2023/02/17 07:03:25;;;;;;;3.40;2.47;;;;;;;6.83;100.00;96600.56;5096968;28;20842;-78
2023/02/17 07:05:57;;;;;;;4.53;3.08;;;;;;;6.87;100.00;96596.16;5094003;28;24434;-78
2023/02/17 07:08:23;;;;;;;6.72;2.80;;;;;;;6.86;100.00;96591.88;5097415;28;20774;-77
2023/02/17 07:10:50;;;;;;;6.45;3.20;;;;;;;6.92;100.00;96597.66;5099811;28;24986;-78
2023/02/17 07:13:16;;;;;;;5.88;3.63;;;;;;;6.88;100.00;96600.41;5096713;28;24461;-80
2023/02/17 07:15:42;;;;;;;5.40;4.22;;;;;;;6.93;100.00;96599.34;5095850;28;24446;-79
2023/02/17 07:18:10;;;;;;;6.43;3.50;;;;;;;6.87;100.00;96601.31;5096380;28;24501;-79
2023/02/17 07:20:37;;;;;;;4.10;2.90;;;;;;;6.87;100.00;96609.88;5097976;28;20779;-79
2023/02/17 07:23:03;;;;;;;6.85;3.70;;;;;;;6.88;100.00;96616.69;5098173;28;24434;-79
2023/02/17 07:25:30;;;;;;;7.30;4.77;;;;;;;6.84;100.00;96612.53;5092684;28;24432;-79
2023/02/17 07:27:56;;;;;;;5.43;3.60;;;;;;;6.97;100.00;96615.53;5092461;28;24449;-78
2023/02/17 07:30:22;;;;;;;6.03;3.28;;;;;;;6.92;100.00;96620.00;5097501;28;21221;-79
2023/02/17 07:32:49;;;;;;;5.15;2.90;;;;;;;6.96;100.00;96624.97;5094740;28;24441;-78
2023/02/17 07:35:17;;;;;;;6.53;4.25;;;;;;;6.94;100.00;96619.06;5094505;28;20775;-79
2023/02/17 07:37:43;;;;;;;4.70;2.95;;;;;;;6.93;100.00;96622.50;5099979;28;21334;-80
2023/02/17 07:40:10;;;;;;;4.85;3.03;;;;;;;6.99;100.00;96614.56;5091006;28;20804;-79
2023/02/17 07:42:37;;;;;;;4.63;2.80;;;;;;;7.05;100.00;96616.13;5090483;28;20811;-78
2023/02/17 07:45:04;;;;;;;6.22;4.40;;;;;;;7.02;100.00;96616.22;5092354;28;24434;-78
2023/02/17 07:47:31;;;;;;;5.20;3.20;;;;;;;7.05;100.00;96610.13;5095146;28;20787;-78
2023/02/17 07:49:58;;;;;;;3.72;2.78;;;;;;;7.12;100.00;96609.84;5095512;27;20775;-77
2023/02/17 07:52:26;;;;;;;5.53;2.78;;;;;;;7.24;100.00;96619.72;5097920;28;20778;-78
2023/02/17 07:54:52;;;;;;;4.80;3.07;;;;;;;7.23;100.00;96619.75;5101359;28;20801;-78
2023/02/17 07:57:19;;;;;;;5.20;2.65;;;;;;;7.25;100.00;96626.53;5100677;28;20803;-76
2023/02/17 07:59:46;;;;;;;3.10;2.63;;;;;;;7.26;100.00;96630.78;5095674;28;21227;-76
2023/02/17 08:02:12;;;;;;;3.85;2.65;;;;;;;7.36;100.00;96630.47;5092619;28;24441;-78
2023/02/17 08:04:39;;;;;;;3.47;2.38;;;;;;;7.36;100.00;96630.47;5099967;28;24709;-78
2023/02/17 08:07:05;;;;;;;9.38;2.50;;;;;;;7.39;100.00;96638.09;5086560;28;25018;-77
2023/02/17 08:15:04;;;;;;;3.08;2.25;;;;;;;7.59;100.00;96629.63;5089578;28;21437;-77
2023/02/17 08:17:30;;;;;;;2.88;2.05;;;;;;;7.61;100.00;96636.41;5092088;28;24438;-78
2023/02/17 08:19:57;;;;;;;4.07;2.20;;;;;;;7.62;100.00;96644.97;5093548;28;24461;-77
2023/02/17 08:22:23;;;;;;;8.43;2.35;;;;;;;7.69;100.00;96651.59;5088038;28;24442;-76
2023/02/17 08:24:51;;;;;;;3.45;2.40;;;;;;;7.73;100.00;96655.72;5091540;28;24434;-78
2023/02/17 08:27:18;;;;;;;3.92;1.98;;;;;;;7.70;100.00;96650.69;5092822;28;20816;-76
2023/02/17 08:29:45;;;;;;;2.90;2.22;;;;;;;7.82;100.00;96654.53;5090962;28;20775;-78
2023/02/17 08:32:14;;;;;;;3.50;1.98;;;;;;;7.84;100.00;96651.00;5089110;28;24437;-78
2023/02/17 08:34:40;;;;;;;3.35;2.20;;;;;;;7.91;100.00;96652.47;5090360;28;20771;-77
2023/02/17 08:37:07;;;;;;;4.30;2.50;;;;;;;7.98;100.00;96660.81;5090666;28;20776;-78
2023/02/17 08:39:34;;;;;;;3.40;2.20;;;;;;;8.04;100.00;96662.28;5085420;28;21202;-77
2023/02/17 08:42:04;;;;;;;3.70;2.22;;;;;;;8.02;100.00;96656.38;5091176;28;20807;-77
2023/02/17 08:44:34;;;;;;;3.40;2.38;;;;;;;7.99;100.00;96642.69;5089593;28;24434;-77
2023/02/17 08:47:01;;;;;;;5.55;2.30;;;;;;;8.00;100.00;96646.09;5090801;28;21150;-77
2023/02/17 08:49:28;;;;;;;2.97;2.10;;;;;;;8.00;100.00;96640.94;5089187;28;24434;-77
2023/02/17 08:51:55;;;;;;;3.20;2.28;;;;;;;8.00;100.00;96648.69;5089700;28;20825;-77
2023/02/17 08:54:21;;;;;;;3.70;2.03;;;;;;;8.02;100.00;96638.31;5087493;28;24429;-77
2023/02/17 08:56:48;;;;;;;3.75;2.10;;;;;;;8.07;100.00;96644.97;5090068;28;24446;-77
2023/02/17 08:59:16;;;;;;;3.53;2.03;;;;;;;8.10;100.00;96633.69;5083635;28;24438;-78
2023/02/17 09:01:43;;;;;;;3.22;2.10;;;;;;;8.12;100.00;96637.91;5085810;28;20836;-77
2023/02/17 09:04:11;;;;;;;3.83;1.90;;;;;;;8.10;100.00;96639.69;5090107;28;20779;-77
2023/02/17 09:06:40;;;;;;;2.05;1.55;;;;;;;8.17;100.00;96633.38;5090356;28;24441;-77
2023/02/17 09:09:09;;;;;;;3.15;1.92;;;;;;;8.27;100.00;96640.75;5092696;28;20779;-79
2023/02/17 09:11:36;;;;;;;3.70;2.20;;;;;;;8.41;100.00;96638.50;5094043;28;20811;-78
2023/02/17 09:14:02;;;;;;;4.75;2.38;;;;;;;8.30;100.00;96638.88;5088411;28;24750;-77
2023/02/17 09:16:31;;;;;;;2.77;1.83;;;;;;;8.38;100.00;96631.75;5091678;28;24445;-76
2023/02/17 09:18:57;;;;;;;5.53;2.35;;;;;;;8.51;100.00;96634.66;5090117;28;25308;-78
2023/02/17 09:21:24;;;;;;;2.60;1.73;;;;;;;8.61;100.00;96632.53;5096825;28;24986;-77
2023/02/17 09:23:52;;;;;;;3.05;1.40;;;;;;;8.77;100.00;96631.00;5091629;28;24441;-78
2023/02/17 09:26:19;;;;;;;2.40;1.25;;;;;;;8.84;100.00;96639.31;5094991;28;24537;-78
2023/02/17 09:28:45;;;;;;;2.20;1.55;;;;;;;8.90;100.00;96631.31;5090963;28;24436;-77
2023/02/17 09:31:14;;;;;;;1.20;1.10;;;;;;;8.98;100.00;96615.50;5087854;28;24431;-77
2023/02/17 09:33:42;;;;;;;1.33;1.10;;;;;;;9.12;100.00;96615.72;5084264;28;24438;-77
2023/02/17 09:36:12;;;;;;;2.47;1.48;;;;;;;9.12;100.00;96618.31;5088323;28;24445;-77
2023/02/17 09:38:40;;;;;;;1.52;1.13;;;;;;;9.12;100.00;96621.75;5082060;28;24453;-78
2023/02/17 09:41:15;;;;;;;2.60;1.27;;;;;;;9.11;100.00;96630.38;5078129;28;20789;-77
2023/02/17 09:43:42;;;;;;;2.50;0.82;;;;;;;9.17;100.00;96639.63;5080752;28;24437;-77
2023/02/17 09:46:12;;;;;;;1.95;1.00;;;;;;;9.24;100.00;96624.72;5088553;28;24435;-78
2023/02/17 09:48:40;;;;;;;1.20;0.90;;;;;;;9.41;100.00;96628.19;5083109;28;24441;-78
2023/02/17 09:51:15;;;;;;;1.10;0.90;;;;;;;9.62;100.00;96625.56;5092711;28;25002;-77
2023/02/17 09:53:48;;;;;;;1.88;1.00;;;;;;;10.00;100.00;96628.13;5084071;28;24430;-79
2023/02/17 09:56:19;;;;;;;2.08;0.80;;;;;;;10.03;100.00;96630.59;5091270;28;24796;-78
2023/02/17 09:58:50;;;;;;;3.05;0.85;;;;;;;10.04;100.00;96629.66;5080351;28;24449;-77
2023/02/17 10:01:20;;;;;;;1.27;0.60;;;;;;;10.08;100.00;96639.81;5089930;28;24477;-77
2023/02/17 10:03:51;;;;;;;0.88;0.65;;;;;;;10.09;100.00;96640.66;5096190;28;24434;-78
2023/02/17 10:06:23;;;;;;;2.30;0.70;;;;;;;10.05;100.00;96634.78;5090511;28;25054;-78
2023/02/17 10:08:54;;;;;;;0.88;0.60;;;;;;;10.12;100.00;96640.50;5090514;28;24434;-77
2023/02/17 10:11:29;;;;;;;1.77;0.68;;;;;;;10.20;100.00;96630.66;5088513;28;24436;-79
2023/02/17 10:14:02;;;;;;;1.02;0.52;;;;;;;10.18;100.00;96627.28;5100620;28;24796;-78
2023/02/17 10:16:33;;;;;;;1.45;0.60;;;;;;;10.14;100.00;96634.34;5093363;28;24446;-78
2023/02/17 10:19:05;;;;;;;1.00;0.60;;;;;;;10.15;100.00;96651.53;5090707;28;24440;-77
2023/02/17 10:21:39;;;;;;;1.00;0.50;;;;;;;10.17;100.00;96675.63;5085849;28;24446;-77
2023/02/17 10:24:05;;;;;;;0.90;0.47;;;;;;;10.21;100.00;96670.31;5100232;28;24434;-77
2023/02/17 10:26:52;;;;;;;5.50;0.40;;;;;;;10.35;100.00;96665.34;5086505;28;24441;-76
2023/02/17 10:29:28;;;;;;;1.77;0.57;;;;;;;10.40;100.00;96655.59;5089157;28;24488;-77
2023/02/17 10:32:10;;;;;;;1.60;0.52;;;;;;;10.46;100.00;96652.72;5088254;28;24441;-77
2023/02/17 10:34:38;;;;;;;1.00;0.40;;;;;;;10.43;100.00;96655.47;5095634;28;24504;-78
2023/02/17 10:37:13;;;;;;;1.10;0.40;;;;;;;10.41;100.00;96662.44;5093026;28;24438;-78
2023/02/17 10:39:48;;;;;;;0.47;0.40;;;;;;;10.50;100.00;96662.03;5093394;28;24492;-78
2023/02/17 10:42:21;;;;;;;0.40;0.30;;;;;;;10.51;100.00;96665.44;5093876;28;25040;-78
2023/02/17 10:44:50;;;;;;;0.43;0.30;;;;;;;10.61;100.00;96656.34;5096218;28;24804;-77
2023/02/17 10:47:18;;;;;;;2.10;0.52;;;;;;;10.66;100.00;96657.75;5094649;28;24445;-77
2023/02/17 10:49:49;;;;;;;1.40;0.47;;;;;;;10.80;100.00;96656.25;5095176;28;24456;-77
2023/02/17 10:52:19;;;;;;;0.70;0.20;;;;;;;10.81;100.00;96648.41;5095593;28;24434;-77
2023/02/17 10:54:52;;;;;;;0.20;0.20;;;;;;;10.58;100.00;96659.91;5092629;28;24437;-76
2023/02/17 10:57:21;;;;;;;1.58;0.20;;;;;;;10.72;100.00;96650.63;5089960;28;24821;-77
2023/02/17 10:59:49;;;;;;;1.20;0.40;;;;;;;10.79;100.00;96662.34;5088143;28;24445;-77
2023/02/17 11:02:19;;;;;;;1.00;0.50;;;;;;;10.90;100.00;96660.06;5091505;28;24461;-77
2023/02/17 11:04:49;;;;;;;0.75;0.40;;;;;;;10.68;100.00;96652.53;5088941;28;24433;-77
2023/02/17 11:07:19;;;;;;;0.40;0.30;;;;;;;10.71;100.00;96661.88;5089498;28;24426;-77
2023/02/17 11:09:47;;;;;;;1.23;0.40;;;;;;;10.67;100.00;96658.59;5093960;28;24441;-77
2023/02/17 11:12:18;;;;;;;1.17;0.47;;;;;;;10.63;100.00;96657.06;5096390;28;24433;-76
2023/02/17 11:14:46;;;;;;;1.75;0.40;;;;;;;10.61;100.00;96661.50;5083160;28;24437;-78
2023/02/17 11:17:16;;;;;;;1.05;0.50;;;;;;;10.69;100.00;96648.19;5090566;28;24453;-77
2023/02/17 11:19:53;;;;;;;0.85;0.43;;;;;;;10.65;100.00;96663.88;5081630;28;24441;-77
2023/02/17 11:22:32;;;;;;;0.93;0.50;;;;;;;10.70;100.00;96653.28;5101263;28;24457;-77
2023/02/17 11:25:01;;;;;;;0.50;0.27;;;;;;;10.64;100.00;96658.75;5091173;28;24442;-78
2023/02/17 11:27:27;;;;;;;1.45;0.40;;;;;;;10.60;100.00;96652.88;5097337;28;24525;-78
2023/02/17 11:30:05;;;;;;;1.30;0.70;;;;;;;10.66;100.00;96660.34;5095928;28;24434;-78
2023/02/17 11:32:33;;;;;;;1.00;0.70;;;;;;;10.76;100.00;96642.63;5092506;28;24425;-79
2023/02/17 11:35:03;;;;;;;1.30;0.50;;;;;;;10.77;100.00;96649.47;5080621;28;25088;-79
2023/02/17 11:37:33;;;;;;;0.82;0.52;;;;;;;10.84;100.00;96644.81;5094099;28;24500;-77
2023/02/17 11:40:00;;;;;;;1.80;0.68;;;;;;;10.87;100.00;96647.28;5099564;28;24436;-79
2023/02/17 11:42:29;;;;;;;1.33;0.90;;;;;;;10.79;100.00;96634.69;5087380;28;24461;-79